createdAt,value
2022-11-30T00:00:57.597Z,18.52
2022-11-30T00:03:25.364Z,18.10
2022-11-30T00:05:53.113Z,20.10
2022-11-30T00:08:20.671Z,20.30
2022-11-30T00:10:48.206Z,19.73
2022-11-30T00:13:15.778Z,18.65
2022-11-30T00:15:43.308Z,18.48
2022-11-30T00:18:10.815Z,19.25
2022-11-30T00:20:38.351Z,19.10
2022-11-30T00:23:05.982Z,18.25
2022-11-30T00:25:33.508Z,18.48
2022-11-30T00:28:01.849Z,18.45
2022-11-30T00:30:30.601Z,17.98
2022-11-30T00:32:58.467Z,18.02
2022-11-30T00:35:26.092Z,18.10
2022-11-30T00:37:53.610Z,17.55
2022-11-30T00:40:21.249Z,17.52
2022-11-30T00:42:48.782Z,17.42
2022-11-30T00:45:16.411Z,17.63
2022-11-30T00:47:43.939Z,18.25
2022-11-30T00:50:11.759Z,18.20
2022-11-30T00:52:39.273Z,18.15
2022-11-30T00:55:07.178Z,19.75
2022-11-30T00:57:34.753Z,18.52
2022-11-30T01:00:02.341Z,19.35
2022-11-30T01:02:29.954Z,19.02
2022-11-30T01:04:57.599Z,19.58
2022-11-30T01:07:25.145Z,18.55
2022-11-30T01:09:52.755Z,18.75
2022-11-30T01:12:20.561Z,19.38
2022-11-30T01:14:48.468Z,18.60
2022-11-30T01:17:16.247Z,18.35
2022-11-30T01:19:43.786Z,18.98
2022-11-30T01:22:11.324Z,18.90
2022-11-30T01:24:38.946Z,18.17
2022-11-30T01:27:06.504Z,17.98
2022-11-30T01:29:34.075Z,18.20
2022-11-30T01:32:01.589Z,19.10
2022-11-30T01:34:29.193Z,18.17
2022-11-30T01:36:56.727Z,17.83
2022-11-30T01:39:24.256Z,18.45
2022-11-30T01:41:51.779Z,17.30
2022-11-30T01:44:26.344Z,17.42
2022-11-30T01:47:01.615Z,18.40
2022-11-30T01:49:30.689Z,17.23
2022-11-30T01:52:04.432Z,17.40
2022-11-30T01:54:54.019Z,17.08
2022-11-30T01:57:27.131Z,17.48
2022-11-30T01:59:57.579Z,17.13
2022-11-30T02:02:34.076Z,17.58
2022-11-30T02:05:02.072Z,17.92
2022-11-30T02:07:29.685Z,17.92
2022-11-30T02:09:57.298Z,17.52
2022-11-30T02:12:45.075Z,17.33
2022-11-30T02:15:17.024Z,17.33
2022-11-30T02:17:50.588Z,17.85
2022-11-30T02:20:18.130Z,16.58
2022-11-30T02:23:03.693Z,17.40
2022-11-30T02:25:42.154Z,17.42
2022-11-30T02:28:09.677Z,17.33
2022-11-30T02:30:39.664Z,17.45
2022-11-30T02:33:16.018Z,16.58
2022-11-30T02:35:48.052Z,16.25
2022-11-30T02:38:20.812Z,16.75
2022-11-30T02:40:48.635Z,16.98
2022-11-30T02:43:17.016Z,15.85
2022-11-30T02:45:50.626Z,16.77
2022-11-30T02:48:21.718Z,16.25
2022-11-30T02:50:54.007Z,16.75
2022-11-30T02:53:21.874Z,15.48
2022-11-30T02:55:49.589Z,16.92
2022-11-30T02:58:18.002Z,16.33
2022-11-30T03:00:45.724Z,16.55
2022-11-30T03:03:13.292Z,16.13
2022-11-30T03:05:40.893Z,17.58
2022-11-30T03:08:08.405Z,17.20
2022-11-30T03:10:35.967Z,17.08
2022-11-30T03:13:03.479Z,16.92
2022-11-30T03:15:31.027Z,17.88
2022-11-30T03:18:02.096Z,17.77
2022-11-30T03:20:29.651Z,17.20
2022-11-30T03:23:03.134Z,17.45
2022-11-30T03:25:30.670Z,17.45
2022-11-30T03:27:58.188Z,17.65
2022-11-30T03:30:25.727Z,16.92
2022-11-30T03:32:53.242Z,17.98
2022-11-30T03:35:20.799Z,17.02
2022-11-30T03:37:48.714Z,17.83
2022-11-30T03:40:16.376Z,16.90
2022-11-30T03:42:43.996Z,17.83
2022-11-30T03:45:11.787Z,17.50
2022-11-30T03:47:39.322Z,17.88
2022-11-30T03:50:07.301Z,16.98
2022-11-30T03:52:34.950Z,17.10
2022-11-30T03:55:02.465Z,17.85
2022-11-30T03:57:30.108Z,17.00
2022-11-30T03:59:57.691Z,17.13
2022-11-30T04:02:25.434Z,17.83
2022-11-30T04:04:53.090Z,15.98
2022-11-30T04:07:20.782Z,16.90
2022-11-30T04:09:48.471Z,17.30
2022-11-30T04:12:16.580Z,16.73
2022-11-30T04:14:44.288Z,16.50
2022-11-30T04:17:11.991Z,17.48
2022-11-30T04:19:39.630Z,17.50
2022-11-30T04:22:09.521Z,17.63
2022-11-30T04:24:37.150Z,17.95
2022-11-30T04:27:04.762Z,18.02
2022-11-30T04:29:32.360Z,18.80
2022-11-30T04:32:00.044Z,18.33
2022-11-30T04:34:28.583Z,18.55
2022-11-30T04:37:00.202Z,17.88
2022-11-30T04:39:28.201Z,18.73
2022-11-30T04:41:55.773Z,18.33
2022-11-30T04:44:23.341Z,19.30
2022-11-30T04:46:50.974Z,18.30
2022-11-30T04:49:18.570Z,18.73
2022-11-30T04:51:46.206Z,18.55
2022-11-30T04:54:13.737Z,19.00
2022-11-30T04:56:41.307Z,18.83
2022-11-30T04:59:08.906Z,18.98
2022-11-30T05:01:36.480Z,19.20
2022-11-30T05:04:04.456Z,19.30
2022-11-30T05:06:32.049Z,19.25
2022-11-30T05:08:59.621Z,18.67
2022-11-30T05:11:27.200Z,19.17
2022-11-30T05:13:54.726Z,19.48
2022-11-30T05:16:22.533Z,19.77
2022-11-30T05:18:50.149Z,19.75
2022-11-30T05:21:17.873Z,17.83
2022-11-30T05:23:47.037Z,19.85
2022-11-30T05:26:14.592Z,19.10
2022-11-30T05:28:42.163Z,18.88
2022-11-30T05:31:09.802Z,20.50
2022-11-30T05:33:37.438Z,19.27
2022-11-30T05:36:10.453Z,19.90
2022-11-30T05:38:38.665Z,19.88
2022-11-30T05:41:06.767Z,19.83
2022-11-30T05:43:34.419Z,19.50
2022-11-30T05:46:02.903Z,19.63
2022-11-30T05:48:30.469Z,19.90
2022-11-30T05:51:05.626Z,19.40
2022-11-30T05:53:33.751Z,20.08
2022-11-30T05:56:05.097Z,18.65
2022-11-30T05:58:32.769Z,19.95
2022-11-30T06:01:00.387Z,20.13
2022-11-30T06:03:31.576Z,18.92
2022-11-30T06:05:59.213Z,20.50
2022-11-30T06:08:26.811Z,20.10
2022-11-30T06:10:54.481Z,19.80
2022-11-30T06:13:27.471Z,19.08
2022-11-30T06:15:59.047Z,18.95
2022-11-30T06:18:26.641Z,20.00
2022-11-30T06:20:54.134Z,20.63
2022-11-30T06:23:21.693Z,19.58
2022-11-30T06:25:49.266Z,18.20
2022-11-30T06:28:16.880Z,19.92
2022-11-30T06:30:44.578Z,20.25
2022-11-30T06:33:12.139Z,20.70
2022-11-30T06:35:45.288Z,20.30
2022-11-30T06:38:12.975Z,19.05
2022-11-30T06:40:40.551Z,19.70
2022-11-30T06:43:08.160Z,19.70
2022-11-30T06:45:35.865Z,19.55
2022-11-30T06:48:03.432Z,20.08
2022-11-30T06:50:31.157Z,20.17
2022-11-30T06:52:59.037Z,20.25
2022-11-30T06:55:26.569Z,20.40
2022-11-30T06:57:54.146Z,18.77
2022-11-30T07:00:21.876Z,18.75
2022-11-30T07:02:49.476Z,19.55
2022-11-30T07:05:17.069Z,20.27
2022-11-30T07:07:44.627Z,20.08
2022-11-30T07:10:17.177Z,19.40
2022-11-30T07:12:47.411Z,20.05
2022-11-30T07:15:15.067Z,19.45
2022-11-30T07:17:42.929Z,20.80
2022-11-30T07:20:10.657Z,21.17
2022-11-30T07:22:38.196Z,20.63
2022-11-30T07:25:24.966Z,19.98
2022-11-30T07:27:52.518Z,20.60
2022-11-30T07:30:20.149Z,20.13
2022-11-30T07:32:47.924Z,21.08
2022-11-30T07:35:15.506Z,20.23
2022-11-30T07:37:43.038Z,19.83
2022-11-30T07:40:10.783Z,20.23
2022-11-30T07:42:38.551Z,20.08
2022-11-30T07:45:06.463Z,21.27
2022-11-30T07:47:34.131Z,21.40
2022-11-30T07:50:01.713Z,21.23
2022-11-30T07:52:34.106Z,20.92
2022-11-30T07:55:01.680Z,19.27
2022-11-30T07:57:29.572Z,21.75
2022-11-30T07:59:57.299Z,23.42
2022-11-30T08:02:24.901Z,22.73
2022-11-30T08:04:52.882Z,23.05
2022-11-30T08:07:20.488Z,25.50
2022-11-30T08:09:51.945Z,22.65
2022-11-30T08:12:19.562Z,27.75
2022-11-30T08:15:18.052Z,27.55
2022-11-30T08:17:35.053Z,29.58
2022-11-30T08:20:02.638Z,28.38
2022-11-30T08:22:30.179Z,32.95
2022-11-30T08:24:57.934Z,26.65
2022-11-30T08:27:46.185Z,23.45
2022-11-30T08:30:13.814Z,25.98
2022-11-30T08:32:41.734Z,25.38
2022-11-30T08:35:09.626Z,27.58
2022-11-30T08:37:38.234Z,25.23
2022-11-30T08:40:06.276Z,22.60
2022-11-30T08:42:33.876Z,21.42
2022-11-30T08:45:01.912Z,20.45
2022-11-30T08:47:30.927Z,19.17
2022-11-30T08:49:58.873Z,19.63
2022-11-30T08:52:26.406Z,18.38
2022-11-30T08:54:54.349Z,17.67
2022-11-30T08:57:22.411Z,17.70
2022-11-30T08:59:49.949Z,18.02
2022-11-30T09:02:19.175Z,18.25
2022-11-30T09:04:48.909Z,18.45
2022-11-30T09:07:16.937Z,20.05
2022-11-30T09:09:44.455Z,22.08
2022-11-30T09:12:12.064Z,22.60
2022-11-30T09:14:45.163Z,17.88
2022-11-30T09:17:13.968Z,16.60
2022-11-30T09:19:41.890Z,16.10
2022-11-30T09:22:10.157Z,15.63
2022-11-30T09:24:38.140Z,14.77
2022-11-30T09:27:05.781Z,15.25
2022-11-30T09:29:33.648Z,14.98
2022-11-30T09:32:01.230Z,14.02
2022-11-30T09:34:28.789Z,12.82
2022-11-30T09:36:56.363Z,14.02
2022-11-30T09:39:24.165Z,13.02
2022-11-30T09:42:00.489Z,11.93
2022-11-30T09:47:14.415Z,11.55
2022-11-30T09:49:43.480Z,9.93
2022-11-30T09:52:14.322Z,10.52
2022-11-30T09:54:45.996Z,10.38
2022-11-30T09:57:21.890Z,11.00
2022-11-30T09:59:54.174Z,11.82
2022-11-30T10:02:24.831Z,10.70
2022-11-30T10:04:52.633Z,10.95
2022-11-30T10:07:20.329Z,10.43
2022-11-30T10:10:30.915Z,9.50
2022-11-30T10:13:02.400Z,9.00
2022-11-30T10:15:30.130Z,8.45
2022-11-30T10:18:01.965Z,9.23
2022-11-30T10:20:44.934Z,9.02
2022-11-30T10:23:12.559Z,8.95
2022-11-30T10:26:03.084Z,8.63
2022-11-30T10:28:52.103Z,8.00
2022-11-30T10:31:20.865Z,8.55
2022-11-30T10:33:49.965Z,8.80
2022-11-30T10:36:28.215Z,8.02
2022-11-30T10:39:03.663Z,8.13
2022-11-30T10:41:52.020Z,9.10
2022-11-30T10:44:26.065Z,8.60
2022-11-30T10:47:00.450Z,8.60
2022-11-30T10:49:29.711Z,7.65
2022-11-30T10:52:00.308Z,7.15
2022-11-30T10:54:27.879Z,8.32
2022-11-30T10:56:56.244Z,7.20
2022-11-30T10:59:25.723Z,7.40
2022-11-30T11:01:53.504Z,7.15
2022-11-30T11:04:25.597Z,6.90
2022-11-30T11:06:55.297Z,6.43
2022-11-30T11:09:32.920Z,6.22
2022-11-30T11:12:07.566Z,6.93
2022-11-30T11:14:38.151Z,6.88
2022-11-30T11:17:10.297Z,6.00
2022-11-30T11:19:38.679Z,6.45
2022-11-30T11:22:08.502Z,6.88
2022-11-30T11:24:44.382Z,6.22
2022-11-30T11:27:29.148Z,6.95
2022-11-30T11:30:04.894Z,7.10
2022-11-30T11:32:32.602Z,6.72
2022-11-30T11:35:00.685Z,6.82
2022-11-30T11:37:33.728Z,7.00
2022-11-30T11:40:17.642Z,6.70
2022-11-30T11:42:45.157Z,5.97
2022-11-30T11:45:33.273Z,6.47
2022-11-30T11:48:26.085Z,6.82
2022-11-30T11:51:10.199Z,4.97
2022-11-30T11:53:51.603Z,6.03
2022-11-30T11:56:28.216Z,5.63
2022-11-30T11:58:58.842Z,5.50
2022-11-30T12:01:45.015Z,6.15
2022-11-30T12:04:21.170Z,5.53
2022-11-30T12:06:49.384Z,6.28
2022-11-30T12:09:19.078Z,6.05
2022-11-30T12:11:48.306Z,6.05
2022-11-30T12:14:17.054Z,6.30
2022-11-30T12:16:50.430Z,6.22
2022-11-30T12:19:20.856Z,6.32
2022-11-30T12:22:03.643Z,6.25
2022-11-30T12:24:41.439Z,7.35
2022-11-30T12:27:29.311Z,7.13
2022-11-30T12:30:12.073Z,6.30
2022-11-30T12:32:49.694Z,6.70
2022-11-30T12:35:20.481Z,7.43
2022-11-30T12:38:06.900Z,8.07
2022-11-30T12:40:59.637Z,7.25
2022-11-30T12:43:34.286Z,8.23
2022-11-30T12:46:15.720Z,7.47
2022-11-30T12:49:04.754Z,7.78
2022-11-30T12:51:45.807Z,8.30
2022-11-30T12:54:32.384Z,7.90
2022-11-30T12:57:18.820Z,7.90
2022-11-30T12:59:46.337Z,7.63
2022-11-30T13:02:28.820Z,8.27
2022-11-30T13:05:00.338Z,8.35
2022-11-30T13:07:35.424Z,8.23
2022-11-30T13:10:21.626Z,9.43
2022-11-30T13:12:51.272Z,9.82
2022-11-30T13:15:27.150Z,13.15
2022-11-30T13:17:55.869Z,9.05
2022-11-30T13:20:26.159Z,8.15
2022-11-30T13:22:58.390Z,10.95
2022-11-30T13:26:07.459Z,13.90
2022-11-30T13:28:25.838Z,16.30
2022-11-30T13:31:00.479Z,17.58
2022-11-30T13:33:35.951Z,18.27
2022-11-30T13:36:06.691Z,16.75
2022-11-30T13:38:37.788Z,17.35
2022-11-30T13:41:07.249Z,16.63
2022-11-30T13:43:48.488Z,17.13
2022-11-30T13:46:18.484Z,17.08
2022-11-30T13:48:46.706Z,17.60
2022-11-30T13:51:34.120Z,17.45
2022-11-30T13:54:27.587Z,18.85
2022-11-30T13:56:55.968Z,18.13
2022-11-30T13:59:23.640Z,17.38
2022-11-30T14:02:14.483Z,16.73
2022-11-30T14:04:46.472Z,16.08
2022-11-30T14:07:33.099Z,16.75
2022-11-30T14:10:01.188Z,17.33
2022-11-30T14:12:40.080Z,18.02
2022-11-30T14:15:26.352Z,16.88
2022-11-30T14:17:57.691Z,17.38
2022-11-30T14:20:31.037Z,17.50
2022-11-30T14:23:11.307Z,17.35
2022-11-30T14:25:42.038Z,17.80
2022-11-30T14:28:11.752Z,17.15
2022-11-30T14:30:39.736Z,17.45
2022-11-30T14:33:19.180Z,17.25
2022-11-30T14:35:51.385Z,17.52
2022-11-30T14:38:24.820Z,17.38
2022-11-30T14:40:53.212Z,17.40
2022-11-30T14:43:20.832Z,18.25
2022-11-30T14:46:05.602Z,17.65
2022-11-30T14:48:35.820Z,17.45
2022-11-30T14:51:04.166Z,17.48
2022-11-30T14:53:37.866Z,17.52
2022-11-30T14:56:25.889Z,19.05
2022-11-30T14:59:22.725Z,17.67
2022-11-30T15:01:55.833Z,17.65
2022-11-30T15:04:25.214Z,18.92
2022-11-30T15:06:52.978Z,19.40
2022-11-30T15:09:22.172Z,17.85
2022-11-30T15:11:51.059Z,18.63
2022-11-30T15:14:18.684Z,18.88
2022-11-30T15:16:50.777Z,19.40
2022-11-30T15:19:24.501Z,18.02
2022-11-30T15:21:52.647Z,18.85
2022-11-30T15:24:20.458Z,18.95
2022-11-30T15:26:48.075Z,20.63
2022-11-30T15:29:23.629Z,20.65
2022-11-30T15:31:52.919Z,21.98
2022-11-30T15:34:42.516Z,21.13
2022-11-30T15:37:10.291Z,20.67
2022-11-30T15:39:38.750Z,22.17
2022-11-30T15:42:06.550Z,20.33
2022-11-30T15:44:34.039Z,18.85
2022-11-30T15:47:02.601Z,18.83
2022-11-30T15:49:31.293Z,18.85
2022-11-30T15:52:04.987Z,19.40
2022-11-30T15:55:03.578Z,19.15
2022-11-30T15:57:50.074Z,18.63
2022-11-30T16:00:17.592Z,17.98
2022-11-30T16:02:45.168Z,16.10
2022-11-30T16:05:14.681Z,17.83
2022-11-30T16:07:53.890Z,18.23
2022-11-30T16:10:21.468Z,17.58
2022-11-30T16:12:50.375Z,18.42
2022-11-30T16:15:17.907Z,17.90
2022-11-30T16:17:45.571Z,18.42
2022-11-30T16:20:14.178Z,18.60
2022-11-30T16:22:46.831Z,18.38
2022-11-30T16:25:15.172Z,19.02
2022-11-30T16:27:42.914Z,18.83
2022-11-30T16:30:30.843Z,17.83
2022-11-30T16:32:58.371Z,18.27
2022-11-30T16:35:30.337Z,17.58
2022-11-30T16:37:57.927Z,17.75
2022-11-30T16:40:25.576Z,18.05
2022-11-30T16:42:53.129Z,16.90
2022-11-30T16:45:22.828Z,17.10
2022-11-30T16:47:53.190Z,17.88
2022-11-30T16:50:21.313Z,17.00
2022-11-30T16:52:48.925Z,17.27
2022-11-30T16:55:17.918Z,18.25
2022-11-30T16:57:45.513Z,17.60
2022-11-30T17:00:15.615Z,16.10
2022-11-30T17:02:45.919Z,16.10
2022-11-30T17:05:14.757Z,16.10
2022-11-30T17:07:43.909Z,16.17
2022-11-30T17:10:12.246Z,15.75
2022-11-30T17:12:40.335Z,15.50
2022-11-30T17:15:08.266Z,15.50
2022-11-30T17:17:35.791Z,14.95
2022-11-30T17:20:03.331Z,16.85
2022-11-30T17:22:30.863Z,16.85
2022-11-30T17:24:58.410Z,16.05
2022-11-30T17:27:26.150Z,16.17
2022-11-30T17:29:53.694Z,16.42
2022-11-30T17:32:21.377Z,16.27
2022-11-30T17:34:49.174Z,16.15
2022-11-30T17:37:17.201Z,15.68
2022-11-30T17:39:44.726Z,16.30
2022-11-30T17:42:12.277Z,14.57
2022-11-30T17:44:39.798Z,16.63
2022-11-30T17:47:07.354Z,15.30
2022-11-30T17:49:34.921Z,16.40
2022-11-30T17:52:02.520Z,15.13
2022-11-30T17:54:30.256Z,14.23
2022-11-30T17:56:57.888Z,13.45
2022-11-30T17:59:25.406Z,14.75
2022-11-30T18:01:53.092Z,15.00
2022-11-30T18:04:20.655Z,15.35
2022-11-30T18:06:48.243Z,14.80
2022-11-30T18:09:16.097Z,14.65
2022-11-30T18:11:43.705Z,14.10
2022-11-30T18:14:11.237Z,14.40
2022-11-30T18:16:39.064Z,13.57
2022-11-30T18:19:14.811Z,14.55
2022-11-30T18:21:44.152Z,14.80
2022-11-30T18:24:12.163Z,14.60
2022-11-30T18:26:40.151Z,15.23
2022-11-30T18:29:08.102Z,13.88
2022-11-30T18:31:36.397Z,14.30
2022-11-30T18:34:05.486Z,16.20
2022-11-30T18:36:33.361Z,15.52
2022-11-30T18:39:01.441Z,14.57
2022-11-30T18:41:30.331Z,15.40
2022-11-30T18:43:58.182Z,15.98
2022-11-30T18:46:26.783Z,16.05
2022-11-30T18:48:54.586Z,17.70
2022-11-30T18:51:26.570Z,25.00
2022-11-30T18:53:59.332Z,25.67
2022-11-30T18:56:28.206Z,18.70
2022-11-30T18:58:57.511Z,17.58
2022-11-30T19:01:26.981Z,17.85
2022-11-30T19:03:55.951Z,17.58
2022-11-30T19:06:32.538Z,17.15
2022-11-30T19:09:01.145Z,19.17
2022-11-30T19:11:28.695Z,19.50
2022-11-30T19:13:57.328Z,20.35
2022-11-30T19:16:25.862Z,19.75
2022-11-30T19:18:53.955Z,20.60
2022-11-30T19:21:22.169Z,19.05
2022-11-30T19:23:50.131Z,19.80
2022-11-30T19:26:17.803Z,19.08
2022-11-30T19:28:45.623Z,19.67
2022-11-30T19:31:22.080Z,20.20
2022-11-30T19:33:51.035Z,20.05
2022-11-30T19:36:20.036Z,20.13
2022-11-30T19:38:47.680Z,19.92
2022-11-30T19:41:15.847Z,18.60
2022-11-30T19:43:49.414Z,19.02
2022-11-30T19:46:21.675Z,19.53
2022-11-30T19:48:49.348Z,22.55
2022-11-30T19:51:18.533Z,23.02
2022-11-30T19:53:46.568Z,23.00
2022-11-30T19:56:15.722Z,22.30
2022-11-30T19:58:43.954Z,22.98
2022-11-30T20:01:15.591Z,22.42
2022-11-30T20:03:44.460Z,22.75
2022-11-30T20:06:12.542Z,25.83
2022-11-30T20:08:40.575Z,24.45
2022-11-30T20:11:11.853Z,24.38
2022-11-30T20:13:39.471Z,24.45
2022-11-30T20:16:08.505Z,23.92
2022-11-30T20:18:39.083Z,22.30
2022-11-30T20:21:13.073Z,22.85
2022-11-30T20:23:41.425Z,20.67
2022-11-30T20:26:20.064Z,23.02
2022-11-30T20:28:48.320Z,24.05
2022-11-30T20:31:16.554Z,23.90
2022-11-30T20:33:44.297Z,23.13
2022-11-30T20:36:12.302Z,23.20
2022-11-30T20:38:40.120Z,25.13
2022-11-30T20:41:10.975Z,22.08
2022-11-30T20:43:38.619Z,22.38
2022-11-30T20:46:16.306Z,23.08
2022-11-30T20:48:43.930Z,22.75
2022-11-30T20:54:01.016Z,20.38
2022-11-30T20:56:28.635Z,19.30
2022-11-30T20:58:56.512Z,18.25
2022-11-30T21:01:24.254Z,19.48
2022-11-30T21:03:51.881Z,20.30
2022-11-30T21:06:19.520Z,19.25
2022-11-30T21:08:47.070Z,20.73
2022-11-30T21:11:16.338Z,20.80
2022-11-30T21:13:44.643Z,21.58
2022-11-30T21:16:12.855Z,21.63
2022-11-30T21:18:41.736Z,20.42
2022-11-30T21:21:11.662Z,21.55
2022-11-30T21:23:39.274Z,21.45
2022-11-30T21:26:08.085Z,21.65
2022-11-30T21:28:38.278Z,21.75
2022-11-30T21:31:06.219Z,19.88
2022-11-30T21:33:33.803Z,19.17
2022-11-30T21:36:04.640Z,19.75
2022-11-30T21:38:32.153Z,18.85
2022-11-30T21:41:00.798Z,18.90
2022-11-30T21:43:29.128Z,17.33
2022-11-30T21:46:01.094Z,17.20
2022-11-30T21:48:29.489Z,16.02
2022-11-30T21:50:58.429Z,18.67
2022-11-30T21:53:26.278Z,16.67
2022-11-30T21:55:55.792Z,15.27
2022-11-30T21:58:23.719Z,15.18
2022-11-30T22:00:55.504Z,15.15
2022-11-30T22:03:23.298Z,14.98
2022-11-30T22:06:04.983Z,15.23
2022-11-30T22:08:32.678Z,15.65
2022-11-30T22:11:20.464Z,15.32
2022-11-30T22:13:52.425Z,15.45
2022-11-30T22:16:20.787Z,15.05
2022-11-30T22:18:48.684Z,16.55
2022-11-30T22:21:20.978Z,16.00
2022-11-30T22:23:58.660Z,15.32
2022-11-30T22:26:30.414Z,14.90
2022-11-30T22:28:59.473Z,15.63
2022-11-30T22:31:28.286Z,15.45
2022-11-30T22:33:56.356Z,15.45
2022-11-30T22:36:28.557Z,16.42
2022-11-30T22:38:57.700Z,15.82
2022-11-30T22:41:26.055Z,13.48
2022-11-30T22:43:53.624Z,14.98
2022-11-30T22:46:22.786Z,14.35
2022-11-30T22:48:50.612Z,15.60
2022-11-30T22:51:22.609Z,13.88
2022-11-30T22:53:50.645Z,13.43
2022-11-30T22:56:19.784Z,13.80
2022-11-30T22:58:48.510Z,14.65
2022-11-30T23:01:17.412Z,14.00
2022-11-30T23:03:45.866Z,14.00
2022-11-30T23:06:14.286Z,13.38
2022-11-30T23:08:42.460Z,12.18
2022-11-30T23:11:14.752Z,12.35
2022-11-30T23:13:42.947Z,12.00
2022-11-30T23:16:11.936Z,13.82
2022-11-30T23:18:43.467Z,14.32
2022-11-30T23:21:15.429Z,14.23
2022-11-30T23:23:43.220Z,11.02
2022-11-30T23:26:12.448Z,10.00
2022-11-30T23:28:41.188Z,9.70
2022-11-30T23:31:34.372Z,10.05
2022-11-30T23:34:00.442Z,10.30
2022-11-30T23:36:28.149Z,10.95
2022-11-30T23:39:01.247Z,11.80
2022-11-30T23:41:29.233Z,15.90
2022-11-30T23:43:56.816Z,15.90
2022-11-30T23:46:25.366Z,16.38
2022-11-30T23:48:53.286Z,17.92
2022-11-30T23:51:20.818Z,17.23
2022-11-30T23:53:48.649Z,17.45
2022-11-30T23:56:16.953Z,18.08
2022-11-30T23:58:45.176Z,16.83
